createdAt,value
2022-12-06T00:01:13.175Z,82.40
2022-12-06T00:03:42.551Z,83.71
2022-12-06T00:06:18.836Z,80.69
2022-12-06T00:08:47.681Z,80.58
2022-12-06T00:11:23.363Z,83.40
2022-12-06T00:13:55.940Z,82.85
2022-12-06T00:16:24.123Z,86.25
2022-12-06T00:18:52.081Z,85.01
2022-12-06T00:21:28.288Z,85.35
2022-12-06T00:24:04.257Z,86.73
2022-12-06T00:26:32.050Z,88.04
2022-12-06T00:29:03.262Z,88.23
2022-12-06T00:31:31.429Z,89.50
2022-12-06T00:33:58.817Z,89.36
2022-12-06T00:36:29.114Z,88.24
2022-12-06T00:38:59.649Z,88.67
2022-12-06T00:41:27.710Z,88.10
2022-12-06T00:43:55.185Z,88.87
2022-12-06T00:46:28.117Z,87.29
2022-12-06T00:48:57.104Z,88.79
2022-12-06T00:51:25.291Z,89.23
2022-12-06T00:53:52.775Z,87.80
2022-12-06T00:56:20.447Z,88.43
2022-12-06T00:58:47.761Z,88.03
2022-12-06T01:01:17.377Z,90.39
2022-12-06T01:03:45.315Z,90.05
2022-12-06T01:06:15.557Z,89.12
2022-12-06T01:08:43.365Z,89.29
2022-12-06T01:11:11.938Z,87.35
2022-12-06T01:13:39.274Z,87.17
2022-12-06T01:16:08.271Z,87.96
2022-12-06T01:18:36.097Z,87.68
2022-12-06T01:21:22.324Z,88.21
2022-12-06T01:23:50.115Z,90.95
2022-12-06T01:26:29.845Z,92.86
2022-12-06T01:28:58.559Z,90.99
2022-12-06T01:31:26.437Z,91.45
2022-12-06T01:33:54.590Z,91.77
2022-12-06T01:36:23.933Z,91.29
2022-12-06T01:38:52.602Z,90.01
2022-12-06T01:41:21.395Z,90.83
2022-12-06T01:43:49.456Z,89.52
2022-12-06T01:46:30.335Z,90.18
2022-12-06T01:49:19.271Z,89.73
2022-12-06T01:51:50.888Z,91.57
2022-12-06T01:54:19.900Z,89.97
2022-12-06T01:56:48.726Z,86.30
2022-12-06T01:59:16.243Z,85.39
2022-12-06T02:01:44.248Z,86.92
2022-12-06T02:04:11.955Z,85.94
2022-12-06T02:06:40.103Z,84.47
2022-12-06T02:09:09.678Z,83.87
2022-12-06T02:11:37.567Z,83.48
2022-12-06T02:14:08.715Z,84.47
2022-12-06T02:16:50.959Z,85.44
2022-12-06T02:19:51.319Z,84.35
2022-12-06T02:22:23.566Z,83.65
2022-12-06T02:25:14.066Z,82.43
2022-12-06T02:28:02.895Z,83.91
2022-12-06T02:30:36.450Z,83.20
2022-12-06T02:33:07.190Z,79.96
2022-12-06T02:35:39.153Z,79.79
2022-12-06T02:38:20.622Z,78.24
2022-12-06T02:40:57.754Z,78.99
2022-12-06T02:43:29.187Z,80.58
2022-12-06T02:45:59.495Z,80.34
2022-12-06T02:48:27.014Z,81.98
2022-12-06T02:51:00.409Z,83.71
2022-12-06T02:53:29.478Z,84.54
2022-12-06T02:55:57.279Z,85.11
2022-12-06T02:58:24.583Z,86.45
2022-12-06T03:00:59.906Z,85.29
2022-12-06T03:03:49.343Z,85.16
2022-12-06T03:06:55.919Z,85.04
2022-12-06T03:09:36.473Z,90.21
2022-12-06T03:12:15.772Z,90.09
2022-12-06T03:15:01.275Z,90.72
2022-12-06T03:17:38.708Z,89.48
2022-12-06T03:20:14.911Z,91.73
2022-12-06T03:22:46.706Z,89.71
2022-12-06T03:25:14.140Z,90.05
2022-12-06T03:27:42.782Z,89.02
2022-12-06T03:30:12.125Z,90.18
2022-12-06T03:32:42.068Z,89.56
2022-12-06T03:35:12.494Z,89.68
2022-12-06T03:37:41.323Z,89.46
2022-12-06T03:40:14.031Z,89.89
2022-12-06T03:42:41.676Z,90.65
2022-12-06T03:45:11.058Z,89.47
2022-12-06T03:47:52.621Z,87.92
2022-12-06T03:50:30.120Z,89.25
2022-12-06T03:52:57.699Z,89.14
2022-12-06T03:55:25.288Z,91.45
2022-12-06T03:57:52.713Z,93.73
2022-12-06T04:00:20.313Z,93.49
2022-12-06T04:02:47.949Z,91.32
2022-12-06T04:05:15.316Z,93.06
2022-12-06T04:07:42.701Z,92.63
2022-12-06T04:10:10.564Z,93.09
2022-12-06T04:12:56.299Z,91.40
2022-12-06T04:15:24.112Z,89.21
2022-12-06T04:18:09.976Z,88.48
2022-12-06T04:21:02.226Z,86.25
2022-12-06T04:23:30.912Z,85.42
2022-12-06T04:25:58.635Z,86.30
2022-12-06T04:28:44.714Z,85.58
2022-12-06T04:31:30.720Z,83.91
2022-12-06T04:34:16.632Z,84.25
2022-12-06T04:37:03.215Z,82.34
2022-12-06T04:39:30.543Z,80.61
2022-12-06T04:42:16.805Z,81.01
2022-12-06T04:44:44.123Z,82.79
2022-12-06T04:47:12.035Z,81.63
2022-12-06T04:49:39.359Z,83.49
2022-12-06T04:52:08.767Z,81.92
2022-12-06T04:54:36.717Z,83.55
2022-12-06T04:57:04.299Z,81.44
2022-12-06T04:59:31.607Z,81.09
2022-12-06T05:01:59.213Z,79.70
2022-12-06T05:04:26.687Z,80.56
2022-12-06T05:06:54.062Z,80.89
2022-12-06T05:09:21.864Z,81.27
2022-12-06T05:11:49.191Z,79.75
2022-12-06T05:14:16.877Z,81.00
2022-12-06T05:16:44.605Z,82.84
2022-12-06T05:19:13.327Z,81.57
2022-12-06T05:21:41.126Z,80.64
2022-12-06T05:24:08.886Z,79.06
2022-12-06T05:26:36.477Z,78.01
2022-12-06T05:29:04.182Z,80.83
2022-12-06T05:31:31.798Z,80.78
2022-12-06T05:33:59.160Z,80.70
2022-12-06T05:36:27.376Z,79.33
2022-12-06T05:38:56.312Z,78.53
2022-12-06T05:41:24.302Z,80.03
2022-12-06T05:43:51.702Z,78.89
2022-12-06T05:46:19.579Z,79.82
2022-12-06T05:48:46.945Z,78.33
2022-12-06T05:51:14.329Z,76.01
2022-12-06T05:53:41.981Z,77.43
2022-12-06T05:56:11.828Z,78.17
2022-12-06T05:58:39.896Z,76.84
2022-12-06T06:01:08.165Z,77.40
2022-12-06T06:03:35.901Z,78.34
2022-12-06T06:06:03.858Z,77.03
2022-12-06T06:08:31.667Z,76.79
2022-12-06T06:11:00.089Z,76.21
2022-12-06T06:13:27.698Z,76.02
2022-12-06T06:15:55.065Z,79.08
2022-12-06T06:18:23.064Z,81.56
2022-12-06T06:20:59.731Z,80.29
2022-12-06T06:23:28.376Z,79.69
2022-12-06T06:25:56.025Z,78.03
2022-12-06T06:28:23.513Z,76.21
2022-12-06T06:30:51.090Z,77.40
2022-12-06T06:33:18.464Z,79.88
2022-12-06T06:35:45.775Z,80.40
2022-12-06T06:38:13.327Z,78.96
2022-12-06T06:40:40.715Z,78.78
2022-12-06T06:43:20.542Z,78.40
2022-12-06T06:45:53.693Z,78.82
2022-12-06T06:48:21.645Z,79.75
2022-12-06T06:50:53.908Z,78.72
2022-12-06T06:53:25.096Z,80.41
2022-12-06T06:55:54.019Z,77.89
2022-12-06T06:58:21.546Z,78.74
2022-12-06T07:01:00.149Z,81.19
2022-12-06T07:03:28.610Z,82.44
2022-12-06T07:06:01.843Z,80.07
2022-12-06T07:08:31.374Z,83.51
2022-12-06T07:10:59.154Z,81.64
2022-12-06T07:13:28.406Z,79.48
2022-12-06T07:15:56.905Z,80.00
2022-12-06T07:18:24.882Z,79.97
2022-12-06T07:21:00.464Z,80.13
2022-12-06T07:23:28.080Z,80.01
2022-12-06T07:26:06.710Z,79.33
2022-12-06T07:28:38.618Z,80.58
2022-12-06T07:31:14.275Z,80.00
2022-12-06T07:33:45.389Z,78.85
2022-12-06T07:36:14.310Z,81.36
2022-12-06T07:38:43.012Z,79.94
2022-12-06T07:41:31.468Z,76.93
2022-12-06T07:44:19.471Z,75.61
2022-12-06T07:46:47.191Z,76.75
2022-12-06T07:49:15.877Z,75.09
2022-12-06T07:51:44.285Z,75.31
2022-12-06T07:54:12.113Z,76.50
2022-12-06T07:56:40.053Z,79.13
2022-12-06T07:59:07.535Z,77.75
2022-12-06T08:01:34.923Z,78.25
2022-12-06T08:04:03.686Z,78.93
2022-12-06T08:06:32.211Z,78.45
2022-12-06T08:08:59.894Z,78.21
2022-12-06T08:11:28.638Z,76.19
2022-12-06T08:13:56.117Z,75.94
2022-12-06T08:16:23.719Z,77.75
2022-12-06T08:18:52.660Z,77.67
2022-12-06T08:21:20.008Z,78.28
2022-12-06T08:23:47.323Z,80.22
2022-12-06T08:26:16.404Z,76.61
2022-12-06T08:28:43.693Z,77.10
2022-12-06T08:31:13.595Z,79.02
2022-12-06T08:33:41.259Z,77.09
2022-12-06T08:36:13.329Z,73.86
2022-12-06T08:38:41.161Z,73.29
2022-12-06T08:41:29.467Z,72.93
2022-12-06T08:43:58.769Z,73.68
2022-12-06T08:46:27.150Z,74.04
2022-12-06T08:48:54.934Z,72.49
2022-12-06T08:51:22.533Z,70.95
2022-12-06T08:53:49.912Z,73.10
2022-12-06T08:56:17.211Z,75.54
2022-12-06T08:58:44.855Z,74.20
2022-12-06T09:01:17.623Z,72.03
2022-12-06T09:03:45.242Z,74.24
2022-12-06T09:06:12.787Z,73.98
2022-12-06T09:08:40.588Z,75.28
2022-12-06T09:11:09.278Z,75.54
2022-12-06T09:13:37.929Z,75.50
2022-12-06T09:16:10.754Z,74.74
2022-12-06T09:18:38.531Z,74.16
2022-12-06T09:21:07.441Z,73.19
2022-12-06T09:23:35.805Z,74.21
2022-12-06T09:26:04.771Z,73.62
2022-12-06T09:28:34.566Z,70.86
2022-12-06T09:31:03.020Z,70.46
2022-12-06T09:33:30.768Z,69.75
2022-12-06T09:35:59.958Z,71.68
2022-12-06T09:38:28.344Z,72.55
2022-12-06T09:41:37.470Z,71.26
2022-12-06T09:44:35.797Z,71.24
2022-12-06T09:47:37.478Z,69.80
2022-12-06T09:50:08.938Z,71.29
2022-12-06T09:52:55.523Z,70.52
2022-12-06T09:55:25.877Z,73.30
2022-12-06T09:58:24.188Z,73.78
2022-12-06T10:01:16.541Z,74.58
2022-12-06T10:03:56.709Z,73.76
2022-12-06T10:06:25.538Z,74.07
2022-12-06T10:09:11.505Z,71.58
2022-12-06T10:12:07.032Z,70.52
2022-12-06T10:15:10.077Z,73.43
2022-12-06T10:18:12.805Z,73.30
2022-12-06T10:20:45.847Z,73.65
2022-12-06T10:23:33.239Z,73.71
2022-12-06T10:26:08.961Z,75.12
2022-12-06T10:29:02.182Z,73.43
2022-12-06T10:31:38.846Z,70.88
2022-12-06T10:34:15.020Z,69.83
2022-12-06T10:36:51.844Z,68.47
2022-12-06T10:39:50.283Z,73.67
2022-12-06T10:42:34.227Z,70.82
2022-12-06T10:45:38.496Z,70.03
2022-12-06T10:48:16.108Z,67.09
2022-12-06T10:50:45.801Z,65.97
2022-12-06T10:53:17.290Z,68.15
2022-12-06T10:55:50.344Z,68.27
2022-12-06T10:58:33.117Z,67.88
2022-12-06T11:01:03.461Z,67.41
2022-12-06T11:03:40.075Z,66.64
2022-12-06T11:06:10.472Z,67.21
2022-12-06T11:08:42.525Z,66.01
2022-12-06T11:11:18.124Z,67.06
2022-12-06T11:13:53.746Z,65.55
2022-12-06T11:16:23.714Z,67.61
2022-12-06T11:18:51.539Z,70.44
2022-12-06T11:21:39.582Z,70.73
2022-12-06T11:24:23.157Z,70.00
2022-12-06T11:27:09.464Z,71.47
2022-12-06T11:29:37.408Z,71.46
2022-12-06T11:32:07.843Z,70.31
2022-12-06T11:34:50.885Z,69.78
2022-12-06T11:37:21.237Z,70.89
2022-12-06T11:39:51.739Z,69.88
2022-12-06T11:42:24.206Z,70.84
2022-12-06T11:44:59.248Z,71.77
2022-12-06T11:47:26.934Z,69.71
2022-12-06T11:49:55.521Z,67.07
2022-12-06T11:52:44.204Z,65.32
2022-12-06T11:55:21.547Z,66.06
2022-12-06T11:57:54.840Z,64.79
2022-12-06T12:00:24.907Z,66.13
2022-12-06T12:02:55.444Z,66.16
2022-12-06T12:05:28.683Z,64.68
2022-12-06T12:08:02.404Z,66.00
2022-12-06T12:10:43.977Z,65.28
2022-12-06T12:13:30.396Z,63.30
2022-12-06T12:16:02.975Z,61.45
2022-12-06T12:18:33.734Z,65.12
2022-12-06T12:21:01.816Z,63.04
2022-12-06T12:23:32.948Z,62.22
2022-12-06T12:26:17.107Z,62.42
2022-12-06T12:28:46.853Z,61.73
2022-12-06T12:31:20.827Z,63.58
2022-12-06T12:33:48.928Z,62.97
2022-12-06T12:36:27.414Z,63.46
2022-12-06T12:39:01.168Z,62.81
2022-12-06T12:41:38.566Z,64.30
2022-12-06T12:44:36.368Z,64.19
2022-12-06T12:47:17.996Z,64.73
2022-12-06T12:49:59.681Z,63.88
2022-12-06T12:52:36.077Z,61.55
2022-12-06T12:55:30.780Z,61.39
2022-12-06T12:58:00.097Z,61.12
2022-12-06T13:00:39.035Z,62.17
2022-12-06T13:03:34.954Z,64.10
2022-12-06T13:06:01.507Z,64.95
2022-12-06T13:08:33.425Z,64.25
2022-12-06T13:11:03.117Z,64.69
2022-12-06T13:13:40.728Z,68.20
2022-12-06T13:16:13.515Z,66.42
2022-12-06T13:18:50.350Z,66.43
2022-12-06T13:21:21.744Z,64.32
2022-12-06T13:23:53.085Z,65.46
2022-12-06T13:26:26.888Z,65.29
2022-12-06T13:28:57.706Z,65.13
2022-12-06T13:31:28.341Z,65.34
2022-12-06T13:34:00.960Z,65.44
2022-12-06T13:36:33.252Z,64.21
2022-12-06T13:39:32.728Z,66.92
2022-12-06T13:42:20.252Z,66.05
2022-12-06T13:44:47.840Z,67.62
2022-12-06T13:47:27.121Z,66.01
2022-12-06T13:49:59.117Z,67.80
2022-12-06T13:52:45.357Z,66.63
2022-12-06T13:55:25.532Z,66.85
2022-12-06T13:57:56.088Z,69.93
2022-12-06T14:00:29.626Z,70.14
2022-12-06T14:03:21.616Z,68.06
2022-12-06T14:06:14.920Z,67.70
2022-12-06T14:08:54.098Z,69.19
2022-12-06T14:11:25.673Z,67.04
2022-12-06T14:13:56.102Z,66.25
2022-12-06T14:16:39.821Z,66.78
2022-12-06T14:19:16.616Z,64.85
2022-12-06T14:21:55.766Z,65.28
2022-12-06T14:24:37.921Z,67.29
2022-12-06T14:27:15.381Z,69.97
2022-12-06T14:29:44.538Z,69.58
2022-12-06T14:32:11.904Z,67.30
2022-12-06T14:34:39.486Z,66.47
2022-12-06T14:37:21.236Z,66.39
2022-12-06T14:39:53.291Z,65.69
2022-12-06T14:42:39.562Z,65.46
2022-12-06T14:45:13.679Z,65.23
2022-12-06T14:47:43.332Z,66.02
2022-12-06T14:50:26.074Z,64.46
2022-12-06T14:53:01.447Z,63.87
2022-12-06T14:55:32.032Z,64.28
2022-12-06T14:58:22.834Z,63.64
2022-12-06T15:00:56.085Z,64.33
2022-12-06T15:03:28.615Z,64.07
2022-12-06T15:06:16.241Z,64.27
2022-12-06T15:08:43.837Z,63.77
2022-12-06T15:11:11.211Z,65.04
2022-12-06T15:13:39.471Z,63.38
2022-12-06T15:16:10.123Z,64.60
2022-12-06T15:18:42.831Z,66.82
2022-12-06T15:21:16.817Z,66.25
2022-12-06T15:23:50.938Z,65.67
2022-12-06T15:26:20.053Z,65.56
2022-12-06T15:28:48.064Z,65.63
2022-12-06T15:31:18.888Z,65.27
2022-12-06T15:33:46.999Z,67.05
2022-12-06T15:36:19.768Z,66.59
2022-12-06T15:38:47.615Z,67.93
2022-12-06T15:41:17.794Z,66.26
2022-12-06T15:43:46.097Z,66.44
2022-12-06T15:46:20.811Z,66.45
2022-12-06T15:48:48.509Z,67.63
2022-12-06T15:51:20.764Z,66.06
2022-12-06T15:53:50.341Z,66.77
2022-12-06T15:56:21.139Z,65.48
2022-12-06T15:58:49.068Z,64.97
2022-12-06T16:01:23.706Z,66.69
2022-12-06T16:03:55.380Z,69.29
2022-12-06T16:06:24.724Z,68.21
2022-12-06T16:08:52.762Z,68.36
2022-12-06T16:11:22.905Z,67.10
2022-12-06T16:13:50.925Z,67.22
2022-12-06T16:16:20.355Z,67.02
2022-12-06T16:18:48.850Z,68.56
2022-12-06T16:21:31.103Z,66.75
2022-12-06T16:24:18.196Z,68.55
2022-12-06T16:26:46.512Z,69.05
2022-12-06T16:29:25.145Z,68.54
2022-12-06T16:31:54.102Z,68.05
2022-12-06T16:34:21.919Z,68.48
2022-12-06T16:37:01.554Z,71.09
2022-12-06T16:39:31.396Z,68.83
2022-12-06T16:41:59.113Z,68.38
2022-12-06T16:44:27.037Z,67.71
2022-12-06T16:46:54.948Z,66.91
2022-12-06T16:49:45.815Z,67.12
2022-12-06T16:52:15.954Z,67.01
2022-12-06T16:54:44.152Z,65.93
2022-12-06T16:57:13.876Z,67.40
2022-12-06T16:59:42.702Z,67.70
2022-12-06T17:02:28.670Z,67.78
2022-12-06T17:04:58.104Z,68.37
2022-12-06T17:07:26.111Z,68.76
2022-12-06T17:09:56.037Z,68.82
2022-12-06T17:12:24.548Z,68.96
2022-12-06T17:14:52.959Z,68.00
2022-12-06T17:17:22.199Z,68.06
2022-12-06T17:19:51.584Z,67.80
2022-12-06T17:22:20.749Z,67.37
2022-12-06T17:24:49.676Z,66.78
2022-12-06T17:27:18.403Z,66.27
2022-12-06T17:29:46.632Z,66.84
2022-12-06T17:32:14.855Z,64.98
2022-12-06T17:34:43.485Z,65.09
2022-12-06T17:37:11.765Z,65.49
2022-12-06T17:39:40.322Z,65.51
2022-12-06T17:42:30.549Z,65.32
2022-12-06T17:44:59.416Z,66.42
2022-12-06T17:47:28.356Z,66.04
2022-12-06T17:49:56.872Z,67.08
2022-12-06T17:52:25.170Z,68.35
2022-12-06T17:54:53.183Z,68.28
2022-12-06T17:57:21.727Z,68.23
2022-12-06T17:59:49.657Z,68.10
2022-12-06T18:02:26.312Z,69.07
2022-12-06T18:04:56.949Z,68.54
2022-12-06T18:07:26.172Z,67.96
2022-12-06T18:09:54.115Z,67.24
2022-12-06T18:12:21.793Z,66.96
2022-12-06T18:14:51.279Z,67.59
2022-12-06T18:17:20.675Z,66.57
2022-12-06T18:19:49.467Z,67.88
2022-12-06T18:22:19.783Z,67.69
2022-12-06T18:24:51.435Z,68.52
2022-12-06T18:27:19.431Z,67.51
2022-12-06T18:29:48.975Z,68.43
2022-12-06T18:32:17.107Z,68.69
2022-12-06T18:34:45.382Z,68.08
2022-12-06T18:37:14.195Z,68.29
2022-12-06T18:39:42.336Z,69.03
2022-12-06T18:42:10.864Z,69.98
2022-12-06T18:44:39.647Z,68.53
2022-12-06T18:47:09.760Z,68.56
2022-12-06T18:49:38.083Z,69.74
2022-12-06T18:52:08.231Z,68.90
2022-12-06T18:54:36.597Z,68.14
2022-12-06T18:57:04.696Z,68.12
2022-12-06T18:59:44.370Z,70.25
2022-12-06T19:02:14.269Z,70.07
2022-12-06T19:04:43.733Z,67.90
2022-12-06T19:07:21.928Z,67.53
2022-12-06T19:09:55.954Z,68.02
2022-12-06T19:12:25.232Z,67.45
2022-12-06T19:14:54.320Z,68.24
2022-12-06T19:17:23.302Z,68.50
2022-12-06T19:19:52.080Z,70.02
2022-12-06T19:22:21.624Z,70.11
2022-12-06T19:24:51.874Z,69.32
2022-12-06T19:27:21.263Z,69.12
2022-12-06T19:29:51.842Z,69.22
2022-12-06T19:32:21.944Z,70.75
2022-12-06T19:34:50.962Z,70.73
2022-12-06T19:37:19.553Z,71.56
2022-12-06T19:39:48.993Z,72.29
2022-12-06T19:42:37.250Z,73.93
2022-12-06T19:45:11.277Z,73.56
2022-12-06T19:47:39.887Z,76.16
2022-12-06T19:50:09.453Z,76.17
2022-12-06T19:52:42.462Z,72.50
2022-12-06T19:55:12.278Z,72.01
2022-12-06T19:57:41.889Z,71.83
2022-12-06T20:00:11.922Z,71.21
2022-12-06T20:02:40.597Z,70.40
2022-12-06T20:05:09.829Z,69.61
2022-12-06T20:07:38.757Z,71.68
2022-12-06T20:10:08.555Z,72.00
2022-12-06T20:12:37.687Z,70.68
2022-12-06T20:15:08.277Z,71.32
2022-12-06T20:17:37.533Z,73.27
2022-12-06T20:20:07.023Z,73.41
2022-12-06T20:22:35.251Z,75.44
2022-12-06T20:25:05.867Z,74.68
2022-12-06T20:27:52.586Z,74.61
2022-12-06T20:30:23.551Z,75.11
2022-12-06T20:32:52.167Z,73.88
2022-12-06T20:35:22.885Z,74.58
2022-12-06T20:37:53.567Z,74.10
2022-12-06T20:40:29.811Z,74.65
2022-12-06T20:43:00.107Z,74.87
2022-12-06T20:45:30.338Z,75.58
2022-12-06T20:47:59.758Z,75.92
2022-12-06T20:50:28.132Z,75.87
2022-12-06T20:52:59.811Z,75.29
2022-12-06T20:55:28.911Z,73.97
2022-12-06T20:57:58.374Z,72.86
2022-12-06T21:00:27.382Z,72.51
2022-12-06T21:02:56.192Z,71.75
2022-12-06T21:05:24.987Z,71.98
2022-12-06T21:07:54.552Z,72.55
2022-12-06T21:10:22.628Z,73.28
2022-12-06T21:12:50.824Z,75.86
2022-12-06T21:15:18.492Z,75.16
2022-12-06T21:17:46.214Z,75.03
2022-12-06T21:20:13.885Z,76.70
2022-12-06T21:22:41.763Z,76.98
2022-12-06T21:25:10.029Z,75.02
2022-12-06T21:27:38.037Z,76.69
2022-12-06T21:30:05.967Z,77.27
2022-12-06T21:32:34.193Z,77.53
2022-12-06T21:35:02.077Z,76.46
2022-12-06T21:37:29.440Z,74.66
2022-12-06T21:39:56.793Z,73.88
2022-12-06T21:42:24.694Z,70.97
2022-12-06T21:44:52.038Z,73.54
2022-12-06T21:47:19.412Z,73.46
2022-12-06T21:49:47.223Z,72.76
2022-12-06T21:52:14.566Z,71.65
2022-12-06T21:54:41.926Z,71.32
2022-12-06T21:57:09.651Z,73.07
2022-12-06T21:59:36.988Z,71.55
2022-12-06T22:02:04.447Z,70.73
2022-12-06T22:04:32.154Z,70.85
2022-12-06T22:06:59.790Z,72.44
2022-12-06T22:09:27.130Z,74.05
2022-12-06T22:11:55.136Z,73.03
2022-12-06T22:14:22.759Z,74.38
2022-12-06T22:16:51.019Z,74.77
2022-12-06T22:19:18.741Z,72.99
2022-12-06T22:21:47.692Z,74.58
2022-12-06T22:24:15.136Z,74.92
2022-12-06T22:26:42.783Z,74.90
2022-12-06T22:29:10.454Z,76.05
2022-12-06T22:31:37.952Z,76.00
2022-12-06T22:34:05.703Z,74.60
2022-12-06T22:36:34.011Z,73.94
2022-12-06T22:39:03.583Z,75.50
2022-12-06T22:41:31.547Z,76.36
2022-12-06T22:44:01.204Z,73.80
2022-12-06T22:46:30.011Z,75.31
2022-12-06T22:48:58.808Z,75.88
2022-12-06T22:51:34.590Z,75.33
2022-12-06T22:54:08.944Z,75.30
2022-12-06T22:56:36.329Z,76.19
2022-12-06T22:59:06.295Z,77.00
2022-12-06T23:01:35.103Z,73.86
2022-12-06T23:04:05.094Z,73.54
2022-12-06T23:06:34.554Z,72.19
2022-12-06T23:09:02.024Z,74.14
2022-12-06T23:11:31.798Z,71.88
2022-12-06T23:13:59.661Z,74.16
2022-12-06T23:16:28.629Z,71.62
2022-12-06T23:18:56.670Z,73.36
2022-12-06T23:21:27.204Z,72.79
2022-12-06T23:23:59.430Z,73.31
2022-12-06T23:26:33.150Z,72.33
2022-12-06T23:29:01.340Z,73.57
2022-12-06T23:31:33.840Z,73.51
2022-12-06T23:34:04.991Z,73.09
2022-12-06T23:36:33.862Z,72.52
2022-12-06T23:39:01.444Z,72.58
2022-12-06T23:41:30.347Z,72.29
2022-12-06T23:43:58.292Z,71.92
2022-12-06T23:46:35.491Z,71.15
2022-12-06T23:49:04.717Z,71.43
2022-12-06T23:51:34.950Z,70.95
2022-12-06T23:54:04.746Z,71.25
2022-12-06T23:56:34.697Z,72.81
2022-12-06T23:59:03.159Z,71.63
